Time;durP1;ratioP1;P1;durP2;ratioP2;P2;SDS_P1;SDS_P2;PMS_P1;PMS_P2;Temp;Humidity;BMP_temperature;BMP_pressure;BME280_temperature;BME280_humidity;BME280_pressure;Samples;Min_cycle;Max_cycle;Signal;HPM_P1;HPM_P2
2021/05/17 00:02:17;;;;;;;7.25;0.57;;;23.20;52.30;;;;;;4994320;28;20054;-76
2021/05/17 00:04:46;;;;;;;1.33;0.50;;;23.00;51.10;;;;;;5001288;28;20559;-76
2021/05/17 00:07:13;;;;;;;1.77;0.47;;;22.50;52.20;;;;;;5001618;28;20073;-77
2021/05/17 00:09:41;;;;;;;1.38;0.60;;;22.60;52.20;;;;;;4993784;28;20097;-76
2021/05/17 00:12:10;;;;;;;1.77;0.50;;;22.80;52.50;;;;;;5001414;28;20030;-75
2021/05/17 00:14:38;;;;;;;1.80;0.40;;;22.90;52.50;;;;;;5002179;28;20030;-75
2021/05/17 00:17:07;;;;;;;1.13;0.20;;;23.20;52.90;;;;;;5009156;28;20045;-77
2021/05/17 00:19:35;;;;;;;0.40;0.20;;;23.10;50.20;;;;;;5010579;28;20037;-76
2021/05/17 00:22:02;;;;;;;0.38;0.20;;;23.60;49.80;;;;;;5003430;28;20030;-76
2021/05/17 00:24:31;;;;;;;0.20;0.10;;;23.70;50.20;;;;;;4998622;28;20409;-77
2021/05/17 00:26:59;;;;;;;0.20;0.00;;;24.00;49.50;;;;;;4997332;28;20034;-76
2021/05/17 00:29:27;;;;;;;0.55;0.20;;;24.20;48.50;;;;;;4995299;28;20026;-75
2021/05/17 00:31:54;;;;;;;0.22;0.10;;;24.20;50.10;;;;;;4995726;28;20034;-76
2021/05/17 00:34:22;;;;;;;0.17;0.10;;;24.50;49.00;;;;;;4994669;28;20040;-76
2021/05/17 00:36:50;;;;;;;1.40;0.10;;;25.00;49.40;;;;;;5004143;28;20065;-76
2021/05/17 00:39:18;;;;;;;0.30;0.10;;;24.90;47.20;;;;;;4992441;28;20036;-75
2021/05/17 00:41:45;;;;;;;2.75;0.20;;;24.80;46.40;;;;;;5003103;28;20069;-77
2021/05/17 00:44:14;;;;;;;0.38;0.00;;;25.00;48.00;;;;;;4997954;28;20654;-78
2021/05/17 00:46:41;;;;;;;0.15;0.05;;;25.50;46.70;;;;;;5000932;28;20046;-77
2021/05/17 00:49:09;;;;;;;0.00;0.00;;;25.20;46.30;;;;;;4994356;28;20042;-76
2021/05/17 00:51:37;;;;;;;0.20;0.10;;;25.10;44.40;;;;;;4997882;28;20103;-77
2021/05/17 00:54:05;;;;;;;0.17;0.10;;;25.00;45.40;;;;;;4994766;28;20081;-77
2021/05/17 00:56:34;;;;;;;0.22;0.10;;;25.30;47.40;;;;;;4998533;28;20080;-77
2021/05/17 00:59:02;;;;;;;0.15;0.08;;;25.80;45.90;;;;;;5001688;28;20030;-76
2021/05/17 01:01:30;;;;;;;0.70;0.10;;;25.70;44.30;;;;;;5002176;28;20511;-76
2021/05/17 01:03:57;;;;;;;0.22;0.20;;;25.70;42.80;;;;;;4993019;28;20089;-76
2021/05/17 01:06:28;;;;;;;1.67;0.20;;;26.00;46.10;;;;;;5001241;28;20085;-77
2021/05/17 01:09:08;;;;;;;0.35;0.20;;;26.00;43.40;;;;;;4995380;28;20049;-76
2021/05/17 01:11:36;;;;;;;1.85;0.10;;;26.40;43.40;;;;;;5000754;28;20041;-76
2021/05/17 01:14:08;;;;;;;0.40;0.22;;;26.60;43.00;;;;;;5000697;28;20041;-76
2021/05/17 01:16:37;;;;;;;0.63;0.00;;;26.20;43.40;;;;;;4993539;28;20026;-76
2021/05/17 01:19:10;;;;;;;0.08;0.05;;;26.40;42.10;;;;;;4993383;28;20030;-74
2021/05/17 01:21:39;;;;;;;0.13;0.10;;;26.40;42.50;;;;;;4997837;28;20033;-76
2021/05/17 01:24:08;;;;;;;0.00;0.00;;;26.50;45.30;;;;;;4999009;28;20053;-76
2021/05/17 01:26:37;;;;;;;0.38;0.10;;;26.50;44.00;;;;;;4998995;28;20044;-76
2021/05/17 01:29:08;;;;;;;0.20;0.10;;;26.80;42.50;;;;;;4997592;28;20031;-77
2021/05/17 01:31:36;;;;;;;0.25;0.10;;;27.10;44.10;;;;;;4995570;28;20041;-76
2021/05/17 01:34:05;;;;;;;0.10;0.10;;;27.30;42.30;;;;;;4994776;28;20129;-76
2021/05/17 01:36:37;;;;;;;0.00;0.00;;;27.20;42.70;;;;;;4996798;28;20033;-76
2021/05/17 01:39:05;;;;;;;0.60;0.10;;;27.30;40.70;;;;;;4997354;28;20565;-76
2021/05/17 01:41:35;;;;;;;1.20;0.20;;;27.20;42.30;;;;;;4995315;28;20088;-77
2021/05/17 01:44:03;;;;;;;0.88;0.10;;;27.00;39.90;;;;;;4990727;28;20033;-77
2021/05/17 01:46:32;;;;;;;1.35;0.10;;;26.60;43.10;;;;;;4999040;28;20385;-77
2021/05/17 01:49:00;;;;;;;0.55;0.10;;;26.50;40.10;;;;;;4995504;28;20046;-76
2021/05/17 01:51:27;;;;;;;0.35;0.20;;;26.80;42.30;;;;;;4993832;28;20038;-75
2021/05/17 01:53:58;;;;;;;0.80;0.10;;;26.80;39.90;;;;;;4997795;28;20152;-75
2021/05/17 01:56:27;;;;;;;0.50;0.20;;;26.60;41.70;;;;;;4993636;28;20108;-75
2021/05/17 01:58:55;;;;;;;1.48;0.20;;;27.00;42.20;;;;;;4990654;28;20033;-77
2021/05/17 02:01:22;;;;;;;0.32;0.10;;;27.20;39.60;;;;;;4987795;28;20066;-75
2021/05/17 02:03:51;;;;;;;0.40;0.10;;;27.50;42.50;;;;;;4996287;28;20065;-75
2021/05/17 02:06:19;;;;;;;0.68;0.20;;;27.60;40.50;;;;;;4992156;28;20042;-76
2021/05/17 02:08:49;;;;;;;0.17;0.17;;;27.30;39.50;;;;;;4997033;28;20030;-76
2021/05/17 02:11:18;;;;;;;0.20;0.10;;;27.20;38.90;;;;;;4999828;28;20496;-77
2021/05/17 02:13:47;;;;;;;0.28;0.10;;;27.10;40.30;;;;;;4991827;28;20167;-77
2021/05/17 02:16:17;;;;;;;0.60;0.10;;;27.40;38.30;;;;;;4997744;28;20030;-76
2021/05/17 02:18:47;;;;;;;0.93;0.00;;;27.60;40.20;;;;;;4996853;28;20433;-76
2021/05/17 02:21:17;;;;;;;0.10;0.10;;;27.10;39.50;;;;;;4996749;28;20026;-77
2021/05/17 02:23:45;;;;;;;0.60;0.20;;;27.60;39.50;;;;;;4994935;28;20089;-76
2021/05/17 02:26:13;;;;;;;0.10;0.10;;;27.70;38.70;;;;;;4994801;28;20117;-75
2021/05/17 02:28:41;;;;;;;0.10;0.05;;;27.80;38.80;;;;;;5003232;28;20381;-76
2021/05/17 02:31:10;;;;;;;0.20;0.00;;;27.70;37.90;;;;;;4998402;28;20037;-76
2021/05/17 02:33:38;;;;;;;0.10;0.00;;;27.60;38.20;;;;;;4997259;28;20045;-75
2021/05/17 02:36:07;;;;;;;0.10;0.10;;;27.40;39.70;;;;;;4996103;28;20365;-75
2021/05/17 02:38:35;;;;;;;0.55;0.10;;;27.20;39.00;;;;;;4999767;28;20109;-74
2021/05/17 02:41:05;;;;;;;0.63;0.00;;;27.40;40.20;;;;;;4996103;28;20049;-75
2021/05/17 02:43:33;;;;;;;0.22;0.10;;;27.10;38.00;;;;;;4995408;28;20037;-73
2021/05/17 02:46:02;;;;;;;0.25;0.00;;;27.20;39.70;;;;;;5001903;28;20080;-73
2021/05/17 02:48:30;;;;;;;0.35;0.08;;;27.00;38.40;;;;;;4990596;28;20038;-75
2021/05/17 02:50:59;;;;;;;1.02;0.10;;;27.00;38.40;;;;;;4994053;28;20088;-75
2021/05/17 02:53:36;;;;;;;0.17;0.08;;;27.10;42.70;;;;;;4994435;28;20113;-74
2021/05/17 02:56:15;;;;;;;0.00;0.00;;;26.80;37.90;;;;;;4996704;28;20096;-74
2021/05/17 02:58:46;;;;;;;0.43;0.10;;;26.00;38.90;;;;;;4990177;28;20018;-74
2021/05/17 03:01:33;;;;;;;0.32;0.10;;;25.90;42.80;;;;;;4993949;28;20073;-74
2021/05/17 03:04:06;;;;;;;0.00;0.00;;;26.10;40.10;;;;;;4994985;28;20029;-74
2021/05/17 03:07:06;;;;;;;0.00;0.00;;;26.10;39.70;;;;;;4987720;28;20043;-73
2021/05/17 03:09:35;;;;;;;0.20;0.10;;;26.40;41.00;;;;;;4996454;28;20038;-76
2021/05/17 03:12:03;;;;;;;0.00;0.00;;;26.60;39.90;;;;;;4996380;28;20080;-76
2021/05/17 03:14:31;;;;;;;0.00;0.00;;;26.00;40.60;;;;;;4995907;28;20488;-76
2021/05/17 03:17:01;;;;;;;0.88;0.08;;;26.10;42.50;;;;;;5004847;28;20038;-76
2021/05/17 03:19:29;;;;;;;0.13;0.00;;;26.30;40.30;;;;;;4997252;28;20030;-76
2021/05/17 03:21:59;;;;;;;0.52;0.00;;;25.90;39.10;;;;;;5003496;28;20042;-76
2021/05/17 03:24:32;;;;;;;0.10;0.00;;;26.00;40.40;;;;;;4996907;28;20062;-77
2021/05/17 03:27:08;;;;;;;0.30;0.10;;;25.60;41.80;;;;;;5000549;28;20058;-76
2021/05/17 03:29:35;;;;;;;0.00;0.00;;;25.50;41.20;;;;;;4997826;28;20034;-76
2021/05/17 03:32:03;;;;;;;2.60;0.10;;;25.30;42.70;;;;;;4995535;28;20084;-76
2021/05/17 03:34:30;;;;;;;0.20;0.10;;;24.90;41.30;;;;;;4988566;28;20105;-75
2021/05/17 03:36:57;;;;;;;1.48;0.00;;;24.30;41.70;;;;;;4994960;28;20042;-75
2021/05/17 03:39:25;;;;;;;0.88;0.25;;;24.00;42.90;;;;;;4998446;28;20030;-76
2021/05/17 03:41:52;;;;;;;4.80;0.40;;;23.40;45.00;;;;;;4985327;28;20038;-76
2021/05/17 03:44:19;;;;;;;16.83;1.58;;;23.10;44.70;;;;;;4989316;28;20014;-76
2021/05/17 03:46:47;;;;;;;3.30;0.10;;;22.60;44.40;;;;;;5002052;28;20069;-75
2021/05/17 03:49:14;;;;;;;0.38;0.13;;;22.40;45.50;;;;;;4999403;28;20026;-75
2021/05/17 03:51:44;;;;;;;0.47;0.38;;;22.00;46.20;;;;;;5000726;28;20084;-75
2021/05/17 03:54:12;;;;;;;0.30;0.10;;;21.90;46.90;;;;;;4997192;28;21760;-75
2021/05/17 03:56:39;;;;;;;1.65;0.20;;;21.80;46.70;;;;;;5000451;28;20026;-77
2021/05/17 03:59:07;;;;;;;2.28;0.30;;;21.70;47.10;;;;;;4996072;28;20026;-77
2021/05/17 04:01:34;;;;;;;0.00;0.00;;;21.90;50.20;;;;;;4999378;28;20049;-77
2021/05/17 04:04:01;;;;;;;0.08;0.00;;;21.70;47.70;;;;;;4997332;28;20026;-77
2021/05/17 04:06:49;;;;;;;0.88;0.08;;;21.60;48.10;;;;;;4990670;28;20117;-77
2021/05/17 04:14:47;;;;;;;0.13;0.05;;;21.20;49.90;;;;;;4993189;28;19913;-77
2021/05/17 04:17:15;;;;;;;0.28;0.10;;;21.00;47.90;;;;;;4995329;28;20484;-76
2021/05/17 04:19:42;;;;;;;0.25;0.00;;;20.80;49.00;;;;;;4997441;28;20034;-75
2021/05/17 04:22:10;;;;;;;0.38;0.00;;;20.70;48.60;;;;;;5000136;28;20478;-75
2021/05/17 04:24:37;;;;;;;1.50;0.20;;;20.60;48.60;;;;;;4999830;28;20030;-76
2021/05/17 04:27:05;;;;;;;0.47;0.08;;;20.60;49.10;;;;;;4995973;28;20092;-75
2021/05/17 04:29:33;;;;;;;0.88;0.20;;;20.60;49.00;;;;;;5001053;28;20025;-76
2021/05/17 04:32:00;;;;;;;0.15;0.00;;;20.50;49.40;;;;;;4992863;28;20481;-76
2021/05/17 04:34:29;;;;;;;0.93;0.10;;;20.40;50.20;;;;;;4997552;28;20416;-76
2021/05/17 04:36:56;;;;;;;1.45;0.10;;;20.40;51.40;;;;;;4996799;28;20041;-77
2021/05/17 04:39:24;;;;;;;0.52;0.20;;;20.30;49.80;;;;;;4996887;28;20045;-78
2021/05/17 04:41:51;;;;;;;1.85;0.10;;;20.30;52.10;;;;;;4994586;28;20156;-77
2021/05/17 04:44:19;;;;;;;1.85;0.00;;;20.20;52.20;;;;;;4993947;28;20061;-78
2021/05/17 04:46:46;;;;;;;0.95;0.00;;;20.00;51.60;;;;;;4995093;28;20038;-78
2021/05/17 04:49:14;;;;;;;1.35;0.45;;;19.90;51.10;;;;;;4992471;28;20387;-76
2021/05/17 04:51:41;;;;;;;1.83;0.10;;;19.80;52.80;;;;;;4997351;28;20045;-75
2021/05/17 04:54:08;;;;;;;0.90;0.00;;;19.80;53.90;;;;;;4996236;28;20054;-76
2021/05/17 04:56:36;;;;;;;0.63;0.20;;;19.70;53.30;;;;;;4997410;28;20033;-77
2021/05/17 04:59:04;;;;;;;0.52;0.08;;;19.70;52.70;;;;;;5001537;28;20065;-76
2021/05/17 05:01:32;;;;;;;0.30;0.20;;;19.80;53.70;;;;;;5000208;28;20500;-77
2021/05/17 05:04:00;;;;;;;1.55;0.00;;;19.70;53.30;;;;;;4996658;28;20030;-77
2021/05/17 05:06:29;;;;;;;26.70;4.40;;;19.70;54.10;;;;;;4996506;28;20049;-76
2021/05/17 05:08:56;;;;;;;2.75;0.73;;;19.70;54.30;;;;;;4988126;28;20026;-79
2021/05/17 05:11:24;;;;;;;9.07;0.55;;;19.50;53.20;;;;;;4994915;28;20057;-78
2021/05/17 05:13:52;;;;;;;7.22;0.82;;;19.50;52.70;;;;;;5003045;28;20374;-78
2021/05/17 05:16:19;;;;;;;8.50;0.82;;;19.50;53.80;;;;;;4999243;28;20101;-79
2021/05/17 05:18:47;;;;;;;2.28;0.10;;;19.50;54.70;;;;;;4991031;28;20019;-75
2021/05/17 05:21:15;;;;;;;3.15;1.45;;;19.60;54.90;;;;;;4991338;28;20026;-77
2021/05/17 05:23:45;;;;;;;0.28;0.05;;;19.60;55.50;;;;;;4997463;28;20381;-78
2021/05/17 05:26:39;;;;;;;0.35;0.20;;;19.60;55.20;;;;;;4993259;28;20033;-78
2021/05/17 05:34:08;;;;;;;0.17;0.00;;;19.80;53.90;;;;;;4999312;28;20026;-77
2021/05/17 05:36:35;;;;;;;1.55;0.10;;;19.70;54.10;;;;;;5002131;28;20021;-76
2021/05/17 05:39:04;;;;;;;1.42;0.25;;;19.60;54.20;;;;;;4998142;28;20097;-77
2021/05/17 05:41:31;;;;;;;0.88;0.00;;;19.60;54.80;;;;;;4998247;28;20018;-76
2021/05/17 05:43:59;;;;;;;0.35;0.10;;;19.60;54.50;;;;;;4995379;28;20096;-76
2021/05/17 05:46:27;;;;;;;2.67;0.10;;;19.70;54.00;;;;;;4995647;28;20038;-76
2021/05/17 05:48:57;;;;;;;0.43;0.10;;;19.70;54.30;;;;;;4990650;28;20369;-75
2021/05/17 05:51:30;;;;;;;1.40;0.10;;;19.60;53.60;;;;;;4997504;28;20456;-76
2021/05/17 05:53:59;;;;;;;1.27;0.35;;;19.50;54.10;;;;;;4995189;28;20489;-76
2021/05/17 05:56:28;;;;;;;1.27;0.40;;;19.40;54.70;;;;;;4994520;28;20022;-77
2021/05/17 05:58:55;;;;;;;1.15;0.20;;;19.40;55.50;;;;;;4994438;28;20428;-80
2021/05/17 06:01:23;;;;;;;0.20;0.00;;;19.30;55.50;;;;;;4999350;28;20038;-82
2021/05/17 06:03:51;;;;;;;0.10;0.00;;;19.30;55.40;;;;;;4993628;28;20034;-78
2021/05/17 06:06:19;;;;;;;0.90;0.40;;;19.10;55.10;;;;;;4999653;28;20040;-80
2021/05/17 06:08:46;;;;;;;1.65;0.10;;;18.90;55.90;;;;;;4996917;28;20018;-79
2021/05/17 06:11:14;;;;;;;0.13;0.10;;;18.70;56.20;;;;;;4991460;28;22485;-79
2021/05/17 06:13:43;;;;;;;0.17;0.10;;;18.60;57.10;;;;;;5001883;28;20121;-78
2021/05/17 06:16:11;;;;;;;0.08;0.00;;;18.50;57.00;;;;;;5005203;28;20053;-78
2021/05/17 06:18:39;;;;;;;0.00;0.00;;;18.40;58.00;;;;;;5004614;28;20036;-78
2021/05/17 06:21:07;;;;;;;0.10;0.10;;;18.40;58.10;;;;;;4995399;28;20461;-79
2021/05/17 06:23:35;;;;;;;1.17;0.17;;;18.30;58.90;;;;;;4994491;28;20113;-79
2021/05/17 06:26:03;;;;;;;0.00;0.00;;;18.30;60.30;;;;;;4988843;28;20057;-80
2021/05/17 06:28:31;;;;;;;1.65;1.08;;;18.20;60.10;;;;;;4995034;28;20035;-80
2021/05/17 06:31:01;;;;;;;0.20;0.10;;;18.20;60.10;;;;;;4993080;28;20543;-79
2021/05/17 06:33:30;;;;;;;0.73;0.20;;;18.00;59.70;;;;;;4995079;28;20112;-79
2021/05/17 06:35:58;;;;;;;0.30;0.10;;;17.90;59.60;;;;;;4992979;28;20046;-79
2021/05/17 06:38:30;;;;;;;1.40;0.10;;;17.80;59.80;;;;;;4996628;28;20018;-80
2021/05/17 06:40:58;;;;;;;1.30;0.13;;;17.80;60.00;;;;;;4996382;28;20027;-80
2021/05/17 06:43:26;;;;;;;4.72;0.30;;;17.80;60.60;;;;;;4994369;28;20038;-79
2021/05/17 06:45:54;;;;;;;1.60;0.20;;;17.80;60.90;;;;;;4991041;28;20483;-77
2021/05/17 06:48:21;;;;;;;1.73;0.20;;;17.80;60.40;;;;;;4994170;28;20026;-80
2021/05/17 06:50:49;;;;;;;0.65;0.32;;;17.90;60.40;;;;;;4991659;28;20048;-78
2021/05/17 06:53:17;;;;;;;2.05;0.50;;;17.70;60.30;;;;;;4999118;28;20037;-79
2021/05/17 06:56:23;;;;;;;4.60;0.40;;;17.60;59.80;;;;;;4994140;28;20029;-80
2021/05/17 06:58:54;;;;;;;1.17;0.30;;;17.50;60.60;;;;;;4993033;28;20129;-80
2021/05/17 07:01:24;;;;;;;1.00;0.47;;;17.50;61.10;;;;;;4990089;28;20630;-79
2021/05/17 07:03:52;;;;;;;3.85;0.30;;;17.50;60.80;;;;;;4996214;28;20083;-78
2021/05/17 07:06:23;;;;;;;1.05;0.25;;;17.50;61.20;;;;;;5005282;28;20041;-77
2021/05/17 07:12:00;;;;;;;0.28;0.13;;;17.40;62.70;;;;;;4992069;28;20089;-78
2021/05/17 07:14:28;;;;;;;0.93;0.40;;;17.30;64.10;;;;;;4994658;28;20025;-78
2021/05/17 07:16:55;;;;;;;0.85;0.30;;;17.20;64.20;;;;;;4992563;28;20034;-78
2021/05/17 07:19:23;;;;;;;2.20;0.57;;;17.10;65.30;;;;;;4994547;28;20026;-78
2021/05/17 07:24:36;;;;;;;0.20;0.10;;;17.10;66.70;;;;;;4996943;28;20037;-77
2021/05/17 07:27:04;;;;;;;0.90;0.38;;;17.10;67.10;;;;;;4999797;28;20030;-78
2021/05/17 07:29:34;;;;;;;0.40;0.20;;;17.10;67.30;;;;;;4993115;28;20117;-77
2021/05/17 07:32:02;;;;;;;1.23;0.35;;;17.00;67.50;;;;;;4987345;28;20097;-78
2021/05/17 07:34:33;;;;;;;0.75;0.32;;;17.00;68.10;;;;;;4989949;28;20413;-79
2021/05/17 07:37:01;;;;;;;1.83;0.30;;;16.90;68.00;;;;;;4990949;28;20037;-79
2021/05/17 07:39:29;;;;;;;0.98;0.30;;;16.90;67.90;;;;;;4991869;28;20036;-78
2021/05/17 07:41:56;;;;;;;0.20;0.20;;;16.90;66.50;;;;;;5002280;28;20056;-79
2021/05/17 07:44:24;;;;;;;1.15;0.30;;;16.90;65.90;;;;;;4999489;28;20120;-77
2021/05/17 07:46:51;;;;;;;0.10;0.10;;;16.90;62.90;;;;;;4995813;28;20121;-78
2021/05/17 07:49:23;;;;;;;0.43;0.22;;;16.90;63.40;;;;;;4993421;28;20042;-77
2021/05/17 07:51:51;;;;;;;0.65;0.10;;;16.80;63.00;;;;;;5002627;28;20030;-78
2021/05/17 07:54:23;;;;;;;0.10;0.10;;;16.80;63.30;;;;;;4995029;28;20031;-78
2021/05/17 07:56:51;;;;;;;0.30;0.10;;;16.80;62.60;;;;;;4996135;28;20233;-77
2021/05/17 07:59:20;;;;;;;0.20;0.10;;;16.60;62.60;;;;;;4993585;28;20026;-79
2021/05/17 08:01:52;;;;;;;0.30;0.20;;;16.60;61.90;;;;;;4998179;28;20060;-78
2021/05/17 08:04:20;;;;;;;2.55;0.20;;;16.60;61.90;;;;;;4992022;28;20029;-80
2021/05/17 08:06:47;;;;;;;0.13;0.10;;;16.50;62.00;;;;;;4999770;28;20030;-79
2021/05/17 08:09:15;;;;;;;0.63;0.17;;;16.50;62.20;;;;;;5000605;28;21128;-79
2021/05/17 08:11:44;;;;;;;1.38;0.28;;;16.50;62.80;;;;;;4997306;28;20520;-79
2021/05/17 08:14:11;;;;;;;0.40;0.10;;;16.40;62.90;;;;;;4997318;28;20033;-79
2021/05/17 08:16:39;;;;;;;0.38;0.30;;;16.40;62.30;;;;;;4993215;28;20027;-78
2021/05/17 08:19:06;;;;;;;1.25;0.10;;;16.40;63.10;;;;;;4993049;28;20129;-78
2021/05/17 08:21:33;;;;;;;0.35;0.15;;;16.40;62.60;;;;;;4998579;28;20056;-80
2021/05/17 08:24:01;;;;;;;0.60;0.20;;;16.40;63.00;;;;;;4995490;28;20110;-79
2021/05/17 08:26:29;;;;;;;0.40;0.10;;;16.40;62.80;;;;;;4992239;28;21806;-78
2021/05/17 08:28:56;;;;;;;0.30;0.08;;;16.40;63.60;;;;;;5002500;28;20470;-79
2021/05/17 08:31:25;;;;;;;1.13;0.32;;;16.40;63.40;;;;;;5005233;28;20468;-78
2021/05/17 08:33:53;;;;;;;0.17;0.10;;;16.30;63.30;;;;;;4996860;28;20468;-77
2021/05/17 08:36:21;;;;;;;0.40;0.15;;;16.30;63.60;;;;;;4995965;28;20113;-78
2021/05/17 08:38:48;;;;;;;0.65;0.15;;;16.30;63.80;;;;;;4997709;28;20019;-78
2021/05/17 08:41:15;;;;;;;2.95;0.40;;;16.20;63.80;;;;;;5003768;28;20385;-78
2021/05/17 08:43:44;;;;;;;0.70;0.10;;;16.20;63.60;;;;;;5001432;28;20048;-78
2021/05/17 08:46:13;;;;;;;0.32;0.20;;;16.10;64.40;;;;;;4993136;28;20070;-78
2021/05/17 08:48:48;;;;;;;0.43;0.10;;;16.00;64.00;;;;;;5004857;28;20045;-78
2021/05/17 08:51:29;;;;;;;0.73;0.10;;;16.10;64.00;;;;;;5004095;28;20132;-77
2021/05/17 08:54:01;;;;;;;0.55;0.15;;;16.10;64.60;;;;;;4997667;28;20038;-78
2021/05/17 08:56:29;;;;;;;1.00;0.20;;;16.00;64.90;;;;;;5001017;28;20224;-78
2021/05/17 08:58:59;;;;;;;0.10;0.10;;;15.90;64.80;;;;;;4996289;28;20061;-78
2021/05/17 09:01:27;;;;;;;0.20;0.10;;;15.90;64.80;;;;;;4998372;28;20080;-78
2021/05/17 09:04:01;;;;;;;0.88;0.30;;;15.90;65.00;;;;;;4999348;28;20018;-78
2021/05/17 09:06:41;;;;;;;1.17;0.20;;;15.80;65.10;;;;;;4999796;28;20034;-78
2021/05/17 09:09:33;;;;;;;0.20;0.10;;;15.80;65.70;;;;;;4995834;28;20470;-76
2021/05/17 09:12:05;;;;;;;0.88;0.17;;;15.70;65.90;;;;;;5000241;28;20030;-77
2021/05/17 09:14:34;;;;;;;0.63;0.10;;;15.60;66.30;;;;;;4999039;28;20026;-76
2021/05/17 09:17:07;;;;;;;0.30;0.13;;;15.60;65.90;;;;;;4997309;28;20089;-77
2021/05/17 09:19:38;;;;;;;0.20;0.17;;;15.50;67.00;;;;;;4998539;28;20029;-77
2021/05/17 09:22:16;;;;;;;0.47;0.20;;;15.50;67.00;;;;;;5002646;28;20021;-78
2021/05/17 09:24:52;;;;;;;0.25;0.10;;;15.40;66.90;;;;;;5001871;28;20030;-78
2021/05/17 09:27:26;;;;;;;;;;;15.30;66.90;;;;;;5002131;28;20113;-76
2021/05/17 09:29:56;;;;;;;0.10;0.10;;;15.20;67.50;;;;;;4999877;28;20351;-77
2021/05/17 09:32:31;;;;;;;0.20;0.10;;;15.20;66.90;;;;;;5000942;28;20117;-78
2021/05/17 09:35:09;;;;;;;0.63;0.50;;;15.20;67.90;;;;;;4998131;28;20069;-78
2021/05/17 09:38:06;;;;;;;1.42;0.20;;;15.20;69.50;;;;;;5000460;28;20039;-78
2021/05/17 09:40:35;;;;;;;0.52;0.13;;;15.10;69.30;;;;;;4996653;28;20050;-76
2021/05/17 09:43:03;;;;;;;1.65;0.10;;;15.00;68.50;;;;;;5003451;28;20029;-78
2021/05/17 09:45:36;;;;;;;0.63;0.20;;;15.00;68.70;;;;;;5001244;28;20035;-76
2021/05/17 09:48:13;;;;;;;1.38;0.13;;;14.90;69.40;;;;;;4998377;28;20037;-76
2021/05/17 09:51:07;;;;;;;0.30;0.30;;;14.90;69.30;;;;;;4998725;28;20050;-79
2021/05/17 09:53:41;;;;;;;0.30;0.15;;;14.80;69.40;;;;;;4996068;28;20023;-78
2021/05/17 09:56:10;;;;;;;0.93;0.20;;;14.80;70.50;;;;;;4988362;28;20481;-76
2021/05/17 09:58:41;;;;;;;0.57;0.10;;;14.80;70.30;;;;;;4996204;28;20080;-76
2021/05/17 10:01:27;;;;;;;1.55;0.30;;;14.70;71.10;;;;;;4989518;28;20022;-79
2021/05/17 10:04:06;;;;;;;0.30;0.20;;;14.70;71.00;;;;;;4990902;28;20026;-77
2021/05/17 10:06:34;;;;;;;0.52;0.20;;;14.60;71.50;;;;;;4998765;28;20042;-78
2021/05/17 10:09:01;;;;;;;0.10;0.10;;;14.50;70.90;;;;;;4995374;28;20026;-77
2021/05/17 10:11:29;;;;;;;1.05;0.20;;;14.50;71.80;;;;;;4997050;28;20025;-79
2021/05/17 10:13:57;;;;;;;0.45;0.35;;;14.40;71.80;;;;;;4996538;28;20026;-77
2021/05/17 10:16:24;;;;;;;0.45;0.10;;;14.30;71.30;;;;;;4994541;28;20423;-77
2021/05/17 10:18:52;;;;;;;0.10;0.10;;;14.20;71.10;;;;;;4998827;28;20049;-78
2021/05/17 10:21:25;;;;;;;0.43;0.17;;;14.20;70.60;;;;;;4998584;28;20548;-77
2021/05/17 10:23:54;;;;;;;0.20;0.17;;;14.20;70.60;;;;;;4993658;28;20038;-77
2021/05/17 10:26:26;;;;;;;0.38;0.20;;;14.10;71.00;;;;;;4997404;28;20366;-77
2021/05/17 10:29:02;;;;;;;1.42;0.40;;;14.10;71.40;;;;;;4997510;28;20113;-77
2021/05/17 10:31:32;;;;;;;;;;;14.00;70.30;;;;;;4994382;28;20026;-78
2021/05/17 10:34:04;;;;;;;0.60;0.45;;;13.90;71.00;;;;;;4994606;28;19913;-76
2021/05/17 10:36:56;;;;;;;0.90;0.40;;;13.90;71.90;;;;;;4992817;28;20180;-76
2021/05/17 10:39:39;;;;;;;0.47;0.30;;;13.80;72.70;;;;;;4997171;28;20029;-78
2021/05/17 10:42:17;;;;;;;1.73;0.60;;;13.80;73.50;;;;;;4992211;28;20117;-79
2021/05/17 10:47:49;;;;;;;1.83;0.98;;;13.60;74.20;;;;;;4989607;28;20088;-78
2021/05/17 10:50:21;;;;;;;3.40;1.77;;;13.60;75.00;;;;;;4993868;28;20109;-78
2021/05/17 10:52:48;;;;;;;20.08;8.98;;;13.50;75.80;;;;;;4995096;28;20039;-78
2021/05/17 10:55:17;;;;;;;18.55;8.90;;;13.40;76.00;;;;;;4997134;28;20480;-78
2021/05/17 10:57:57;;;;;;;12.15;5.75;;;13.40;76.50;;;;;;5003116;28;20137;-78
2021/05/17 11:00:26;;;;;;;7.32;3.72;;;13.30;76.60;;;;;;4992402;28;20030;-77
2021/05/17 11:03:12;;;;;;;10.20;5.78;;;13.30;77.20;;;;;;4993361;28;20061;-77
2021/05/17 11:05:44;;;;;;;7.30;4.63;;;13.20;76.80;;;;;;4993886;28;20421;-78
2021/05/17 11:08:15;;;;;;;3.13;1.63;;;13.10;76.50;;;;;;4996738;28;20061;-79
2021/05/17 11:10:45;;;;;;;3.13;1.35;;;13.00;76.90;;;;;;4996830;28;20492;-77
2021/05/17 11:13:17;;;;;;;3.35;1.52;;;13.00;77.60;;;;;;4985469;28;20034;-77
2021/05/17 11:16:08;;;;;;;2.75;1.50;;;12.90;78.20;;;;;;4978206;28;20037;-76
2021/05/17 11:18:47;;;;;;;7.70;1.90;;;12.80;78.70;;;;;;4972359;28;20042;-77
2021/05/17 11:21:29;;;;;;;4.30;2.35;;;12.70;79.50;;;;;;4979002;28;20022;-78
2021/05/17 11:24:08;;;;;;;3.30;2.28;;;12.70;80.20;;;;;;4979514;28;20489;-76
2021/05/17 11:26:57;;;;;;;4.00;2.47;;;12.70;81.00;;;;;;4972982;28;20046;-78
2021/05/17 11:29:33;;;;;;;7.00;3.42;;;12.60;81.10;;;;;;4984504;28;20026;-78
2021/05/17 11:32:13;;;;;;;5.05;3.17;;;12.50;82.10;;;;;;4980151;28;20053;-79
2021/05/17 11:35:00;;;;;;;3.40;2.15;;;12.40;83.80;;;;;;4980598;28;20030;-79
2021/05/17 11:37:30;;;;;;;3.10;1.50;;;12.20;84.90;;;;;;4978261;28;20434;-77
2021/05/17 11:39:58;;;;;;;3.72;1.48;;;12.00;86.10;;;;;;4979752;28;20022;-76
2021/05/17 11:42:34;;;;;;;2.65;1.52;;;11.90;87.30;;;;;;4989327;28;20022;-78
2021/05/17 11:45:22;;;;;;;3.53;1.40;;;11.70;88.20;;;;;;4998731;28;20023;-77
2021/05/17 11:47:53;;;;;;;2.15;0.90;;;11.70;89.00;;;;;;5005751;28;20030;-77
2021/05/17 11:50:23;;;;;;;2.15;1.02;;;11.60;89.90;;;;;;4996051;28;20105;-77
2021/05/17 11:52:50;;;;;;;1.70;0.98;;;11.50;89.90;;;;;;5001586;28;20027;-78
2021/05/17 11:55:18;;;;;;;3.17;1.15;;;11.50;89.90;;;;;;4994902;28;20022;-78
2021/05/17 11:57:45;;;;;;;2.13;1.20;;;11.50;89.70;;;;;;4989689;28;20046;-76
2021/05/17 12:00:16;;;;;;;2.03;0.80;;;11.50;89.40;;;;;;4985261;28;20026;-77
2021/05/17 12:02:48;;;;;;;1.85;1.17;;;11.50;90.00;;;;;;4978397;28;20030;-79
2021/05/17 12:05:16;;;;;;;2.03;1.17;;;11.40;90.20;;;;;;4985070;28;20117;-76
2021/05/17 12:07:45;;;;;;;1.73;1.10;;;11.40;90.20;;;;;;4992293;28;20433;-77
2021/05/17 12:10:16;;;;;;;1.92;1.00;;;11.20;90.30;;;;;;4994022;28;20031;-77
2021/05/17 12:12:44;;;;;;;1.73;0.98;;;11.20;90.40;;;;;;4975689;28;20052;-77
2021/05/17 12:15:17;;;;;;;1.60;1.02;;;11.10;90.60;;;;;;4980065;28;20337;-77
2021/05/17 12:17:44;;;;;;;1.25;0.60;;;11.10;90.70;;;;;;4977600;28;20577;-77
2021/05/17 12:20:15;;;;;;;4.00;1.80;;;11.00;90.80;;;;;;4977423;28;20954;-76
2021/05/17 12:22:46;;;;;;;2.78;1.27;;;11.00;91.20;;;;;;4978656;28;20058;-76
2021/05/17 12:25:20;;;;;;;2.65;0.82;;;11.00;90.90;;;;;;4987109;28;20049;-77
2021/05/17 12:27:49;;;;;;;2.08;0.95;;;11.00;90.90;;;;;;5000766;28;20026;-77
2021/05/17 12:30:36;;;;;;;2.95;1.45;;;10.90;91.00;;;;;;4999487;28;20024;-77
2021/05/17 12:33:04;;;;;;;3.80;1.83;;;10.90;91.10;;;;;;4990507;28;20034;-77
2021/05/17 12:35:39;;;;;;;2.88;1.20;;;10.90;91.30;;;;;;4999587;28;20025;-78
2021/05/17 12:38:19;;;;;;;3.38;1.25;;;10.80;91.00;;;;;;4997255;28;20484;-79
2021/05/17 12:40:51;;;;;;;5.05;1.38;;;10.80;91.30;;;;;;4997291;28;20042;-78
2021/05/17 12:43:20;;;;;;;3.83;1.50;;;10.80;91.60;;;;;;5006176;28;20033;-79
2021/05/17 12:45:59;;;;;;;2.42;1.30;;;10.70;91.50;;;;;;4994239;28;20444;-79
2021/05/17 12:48:30;;;;;;;2.22;1.10;;;10.60;91.50;;;;;;4998118;28;20385;-79
2021/05/17 12:51:22;;;;;;;2.40;1.17;;;10.50;91.70;;;;;;5001516;28;20050;-78
2021/05/17 12:53:51;;;;;;;2.88;1.23;;;10.40;91.70;;;;;;4996961;28;20025;-80
2021/05/17 12:56:31;;;;;;;3.25;1.25;;;10.30;92.00;;;;;;4988219;28;20030;-80
2021/05/17 12:59:20;;;;;;;2.72;1.38;;;10.30;92.10;;;;;;4990279;28;20061;-79
2021/05/17 13:01:49;;;;;;;4.25;1.60;;;10.20;92.30;;;;;;4974185;28;20030;-79
2021/05/17 13:04:27;;;;;;;3.05;1.58;;;10.10;92.70;;;;;;4999852;28;20077;-78
2021/05/17 13:07:03;;;;;;;2.70;1.33;;;10.10;92.80;;;;;;4997074;28;20822;-78
2021/05/17 13:09:33;;;;;;;3.10;1.75;;;10.00;92.90;;;;;;4996659;28;20022;-78
2021/05/17 13:12:02;;;;;;;4.18;2.38;;;10.00;92.90;;;;;;4990165;28;23641;-77
2021/05/17 13:14:30;;;;;;;5.53;3.03;;;9.90;93.10;;;;;;4991890;28;20655;-78
2021/05/17 13:17:01;;;;;;;7.32;4.65;;;9.90;93.30;;;;;;4994800;28;20026;-77
2021/05/17 13:31:02;;;;;;;7.00;4.10;;;9.70;93.40;;;;;;4978110;28;20096;-75
2021/05/17 13:33:44;;;;;;;6.40;4.05;;;9.60;93.40;;;;;;4976294;28;20057;-78
2021/05/17 13:36:15;;;;;;;5.30;3.92;;;9.60;93.40;;;;;;4978362;28;20397;-78
2021/05/17 13:38:45;;;;;;;6.00;3.75;;;9.50;93.60;;;;;;4987549;28;20385;-77